Flight Track Log - Related Links

Times and Time Zones

All times are in EDT time to prevent confusion due to time zone crossing. See the JIA2228 flight status page for this flight to view local times or setup timezone preferences in your user account.

Time Position Orientation Groundspeed Altitude Reporting Facility
EDT Latitude Longitude Course Direction KTS MPH feet Rate Location/Type
Tue 09:32:32 PM 30.4444 -84.3197 246° West  Level FlightAware Approximate
Tue 09:33:32 PM 30.5441 -84.3333 212° Southwest  Level FlightAware Approximate
Tue 09:33:51 PM 30.3992 -84.4364 359° North 215 247 4,300  Level Jacksonville Center
Tue 09:38:51 PM 30.8125 -84.4456 North 318 366 16,800 2,350 Climbing Jacksonville Center
Tue 09:39:51 PM 30.9064 -84.4444 North 329 379 18,400 1,550 Climbing Jacksonville Center
Tue 09:40:51 PM 31.0067 -84.4342 North 341 392 19,900 1,500 Climbing Jacksonville Center
Tue 09:41:51 PM 31.1050 -84.4211 North 351 404 21,400 1,500 Climbing Jacksonville Center
Tue 09:42:51 PM 31.2094 -84.4083 23° Northeast 361 415 22,900 1,500 Climbing Jacksonville Center
Tue 09:43:51 PM 31.3042 -84.3611 38° Northeast 361 415 24,400 1,163 Climbing Jacksonville Center
Tue 09:46:07 PM 31.4939 -84.1897 37° Northeast 397 457 26,700 1,010 Climbing Atlanta Center
Tue 09:47:07 PM 31.5881 -84.1072 36° Northeast 407 468 27,700 1,000 Climbing Atlanta Center
Tue 09:48:07 PM 31.6839 -84.0242 37° Northeast 413 475 28,700 650 Climbing Atlanta Center
Tue 09:49:07 PM 31.7903 -83.9289 37° Northeast 418 481 29,000 136 Climbing Atlanta Center
Tue 09:50:19 PM 31.9133 -83.8211 38° Northeast 434 499 29,000  Level Atlanta Center
Tue 09:51:19 PM 32.0156 -83.7278 38° Northeast 449 517 29,000  Level Atlanta Center
Tue 09:52:19 PM 32.1194 -83.6317 37° Northeast 460 529 29,000  Level Atlanta Center
Tue 09:53:19 PM 32.2236 -83.5381 38° Northeast 465 535 29,000  Level Atlanta Center
Tue 09:54:19 PM 32.3294 -83.4414 37° Northeast 465 535 29,000  Level Atlanta Center
Tue 09:55:19 PM 32.4356 -83.3472 38° Northeast 470 541 29,000  Level Atlanta Center
Tue 09:56:19 PM 32.5433 -83.2478 38° Northeast 476 548 29,000  Level Atlanta Center
Tue 09:57:19 PM 32.6514 -83.1483 39° Northeast 481 554 29,000  Level Atlanta Center
Tue 09:58:19 PM 32.7569 -83.0483 38° Northeast 481 554 29,000  Level Atlanta Center
Tue 09:59:19 PM 32.8606 -82.9508 37° Northeast 481 554 29,000  Level Atlanta Center
Tue 10:00:19 PM 32.9681 -82.8528 38° Northeast 481 554 29,000  Level Atlanta Center
Tue 10:01:19 PM 33.0778 -82.7522 38° Northeast 481 554 29,000  Level Atlanta Center
Tue 10:02:19 PM 33.1872 -82.6514 35° Northeast 481 554 29,000 -200 Level Atlanta Center
Tue 10:03:19 PM 33.2989 -82.5575 23° Northeast 481 554 28,600 -750 Descending Atlanta Center
Tue 10:04:19 PM 33.4317 -82.4906 25° Northeast 493 567 27,500 -1,050 Descending Atlanta Center
Tue 10:05:19 PM 33.5519 -82.4236 25° Northeast 493 567 26,500 -1,000 Descending Atlanta Center
Tue 10:06:19 PM 33.6658 -82.3589 31° Northeast 458 527 25,500 -900 Descending Atlanta Center
Tue 10:07:19 PM 33.7608 -82.2897 33° Northeast 442 509 24,700 -750 Descending Atlanta Center
Tue 10:08:19 PM 33.8619 -82.2100 32° Northeast 442 509 24,000 -350 Descending Atlanta Center
Tue 10:09:19 PM 33.9733 -82.1250 32° Northeast 432 497 24,000  Level Atlanta Center
Tue 10:10:19 PM 34.0683 -82.0528 32° Northeast 419 482 24,000  Level Atlanta Center
Tue 10:11:19 PM 34.1672 -81.9775 32° Northeast 413 475 24,000  Level Atlanta Center
Tue 10:12:19 PM 34.2619 -81.9050 32° Northeast 408 470 24,000 -700 Level Atlanta Center
Tue 10:13:19 PM 34.3567 -81.8319 31° Northeast 408 470 22,600 -2,150 Descending Atlanta Center
Tue 10:14:19 PM 34.4514 -81.7617 33° Northeast 408 470 19,700 -2,900 Descending Atlanta Center
Tue 10:15:19 PM 34.5419 -81.6911 31° Northeast 398 458 16,800 -2,880 Descending Atlanta Center
Tue 10:15:59 PM 34.5994 -81.6489 32° Northeast 376 433 14,900 -2,936 Descending Atlanta Center
Tue 10:16:53 PM 34.6797 -81.5886 37° Northeast 364 419 12,200 -1,513 Descending Atlanta Center
Tue 10:17:54 PM 34.7536 -81.5208 47° Northeast 341 392 12,000 -375 Descending Atlanta Center
Tue 10:19:01 PM 34.8328 -81.4172 46° Northeast 362 417 11,400 -803 Descending Atlanta Center
Tue 10:20:01 PM 34.8997 -81.3339 47° Northeast 344 396 10,300 -694 Descending Atlanta Center
Tue 10:21:02 PM 34.9647 -81.2483 48° Northeast 339 390 10,000 -246 Descending Atlanta Center
Tue 10:22:03 PM 35.0253 -81.1675 46° Northeast 315 362 9,800 -472 Descending Atlanta Center
Tue 10:23:09 PM 35.0922 -81.0842 North 299 344 9,000 -446 Descending Atlanta Center
Tue 10:24:04 PM 35.1567 -81.0717 North 287 330 8,900 -569 Descending Atlanta Center
Tue 10:25:05 PM 35.2272 -81.0589 33° Northeast 259 298 7,900 -1,140 Descending Atlanta Center
Tue 10:26:05 PM 35.2867 -81.0108 63° Northeast 249 287 6,600 -1,339 Descending Atlanta Center
Tue 10:27:06 PM 35.3161 -80.9411 63° Northeast 238 274 5,200 -1,377 Descending Atlanta Center

Login

Don't have an account? Register now (free) for customized features, flight alerts, and more!